sensor_id;sensor_type;location;lat;lon;timestamp;temperature;humidity
26224;DHT22;14820;48.682;8.890;2023-06-22T00:00:53;20.00;99.90
26224;DHT22;14820;48.682;8.890;2023-06-22T00:03:20;19.90;99.90
26224;DHT22;14820;48.682;8.890;2023-06-22T00:05:47;19.90;99.90
26224;DHT22;14820;48.682;8.890;2023-06-22T00:08:13;19.80;99.90
26224;DHT22;14820;48.682;8.890;2023-06-22T00:10:39;19.70;99.90
26224;DHT22;14820;48.682;8.890;2023-06-22T00:13:09;19.70;99.90
26224;DHT22;14820;48.682;8.890;2023-06-22T00:15:36;19.70;99.90
26224;DHT22;14820;48.682;8.890;2023-06-22T00:18:03;19.70;99.90
26224;DHT22;14820;48.682;8.890;2023-06-22T00:20:28;19.60;99.90
26224;DHT22;14820;48.682;8.890;2023-06-22T00:22:55;19.60;99.90
26224;DHT22;14820;48.682;8.890;2023-06-22T00:25:21;19.60;99.90
26224;DHT22;14820;48.682;8.890;2023-06-22T00:27:47;19.60;99.90
26224;DHT22;14820;48.682;8.890;2023-06-22T00:30:13;19.50;99.90
26224;DHT22;14820;48.682;8.890;2023-06-22T00:32:39;19.50;99.90
26224;DHT22;14820;48.682;8.890;2023-06-22T00:35:05;19.60;99.90
26224;DHT22;14820;48.682;8.890;2023-06-22T00:37:30;19.50;99.90
26224;DHT22;14820;48.682;8.890;2023-06-22T00:39:56;19.40;99.90
26224;DHT22;14820;48.682;8.890;2023-06-22T00:42:23;19.50;99.90
26224;DHT22;14820;48.682;8.890;2023-06-22T00:44:48;19.60;99.90
26224;DHT22;14820;48.682;8.890;2023-06-22T00:47:15;19.40;99.90
26224;DHT22;14820;48.682;8.890;2023-06-22T00:49:42;19.30;99.90
26224;DHT22;14820;48.682;8.890;2023-06-22T00:52:09;19.30;99.90
26224;DHT22;14820;48.682;8.890;2023-06-22T00:54:42;19.40;99.90
26224;DHT22;14820;48.682;8.890;2023-06-22T00:57:13;19.50;99.90
26224;DHT22;14820;48.682;8.890;2023-06-22T00:59:44;19.40;99.90
26224;DHT22;14820;48.682;8.890;2023-06-22T01:02:11;19.40;99.90
26224;DHT22;14820;48.682;8.890;2023-06-22T01:04:38;19.50;99.90
26224;DHT22;14820;48.682;8.890;2023-06-22T01:07:17;19.40;99.90
26224;DHT22;14820;48.682;8.890;2023-06-22T01:10:21;19.50;99.90
26224;DHT22;14820;48.682;8.890;2023-06-22T01:12:59;19.50;99.90
26224;DHT22;14820;48.682;8.890;2023-06-22T01:15:51;19.40;99.90
26224;DHT22;14820;48.682;8.890;2023-06-22T01:18:19;19.30;99.90
26224;DHT22;14820;48.682;8.890;2023-06-22T01:20:46;19.40;99.90
26224;DHT22;14820;48.682;8.890;2023-06-22T01:23:26;19.40;99.90
26224;DHT22;14820;48.682;8.890;2023-06-22T01:28:39;19.30;99.90
26224;DHT22;14820;48.682;8.890;2023-06-22T01:31:08;19.20;99.90
26224;DHT22;14820;48.682;8.890;2023-06-22T01:33:37;19.30;99.90
26224;DHT22;14820;48.682;8.890;2023-06-22T01:36:05;19.20;99.90
26224;DHT22;14820;48.682;8.890;2023-06-22T01:38:33;19.20;99.90
26224;DHT22;14820;48.682;8.890;2023-06-22T01:40:59;19.10;99.90
26224;DHT22;14820;48.682;8.890;2023-06-22T01:43:26;19.10;99.90
26224;DHT22;14820;48.682;8.890;2023-06-22T01:45:54;19.10;99.90
26224;DHT22;14820;48.682;8.890;2023-06-22T01:48:20;19.00;99.90
26224;DHT22;14820;48.682;8.890;2023-06-22T01:50:47;19.00;99.90
26224;DHT22;14820;48.682;8.890;2023-06-22T01:53:12;19.00;99.90
26224;DHT22;14820;48.682;8.890;2023-06-22T01:55:38;19.00;99.90
26224;DHT22;14820;48.682;8.890;2023-06-22T01:58:04;18.90;99.90
26224;DHT22;14820;48.682;8.890;2023-06-22T02:00:33;18.90;99.90
26224;DHT22;14820;48.682;8.890;2023-06-22T02:03:24;19.00;99.90
26224;DHT22;14820;48.682;8.890;2023-06-22T02:06:06;19.00;99.90
26224;DHT22;14820;48.682;8.890;2023-06-22T02:08:41;18.80;99.90
26224;DHT22;14820;48.682;8.890;2023-06-22T02:11:09;18.80;99.90
26224;DHT22;14820;48.682;8.890;2023-06-22T02:13:37;18.80;99.90
26224;DHT22;14820;48.682;8.890;2023-06-22T02:16:03;18.80;99.90
26224;DHT22;14820;48.682;8.890;2023-06-22T02:18:29;18.80;99.90
26224;DHT22;14820;48.682;8.890;2023-06-22T02:20:55;18.80;99.90
26224;DHT22;14820;48.682;8.890;2023-06-22T02:23:20;18.80;99.90
26224;DHT22;14820;48.682;8.890;2023-06-22T02:25:46;18.80;99.90
26224;DHT22;14820;48.682;8.890;2023-06-22T02:28:12;18.90;99.90
26224;DHT22;14820;48.682;8.890;2023-06-22T02:30:37;18.90;99.90
26224;DHT22;14820;48.682;8.890;2023-06-22T02:33:03;18.80;99.90
26224;DHT22;14820;48.682;8.890;2023-06-22T02:35:29;18.60;99.90
26224;DHT22;14820;48.682;8.890;2023-06-22T02:37:58;18.60;99.90
26224;DHT22;14820;48.682;8.890;2023-06-22T02:40:25;18.70;99.90
26224;DHT22;14820;48.682;8.890;2023-06-22T02:42:51;18.70;99.90
26224;DHT22;14820;48.682;8.890;2023-06-22T02:45:16;18.60;99.90
26224;DHT22;14820;48.682;8.890;2023-06-22T02:47:42;18.50;99.90
26224;DHT22;14820;48.682;8.890;2023-06-22T02:50:08;18.40;99.90
26224;DHT22;14820;48.682;8.890;2023-06-22T02:52:33;18.40;99.90
26224;DHT22;14820;48.682;8.890;2023-06-22T02:54:59;18.40;99.90
26224;DHT22;14820;48.682;8.890;2023-06-22T02:57:25;18.50;99.90
26224;DHT22;14820;48.682;8.890;2023-06-22T02:59:51;18.40;99.90
26224;DHT22;14820;48.682;8.890;2023-06-22T03:02:16;18.30;99.90
26224;DHT22;14820;48.682;8.890;2023-06-22T03:04:43;18.20;99.90
26224;DHT22;14820;48.682;8.890;2023-06-22T03:07:08;18.20;99.90
26224;DHT22;14820;48.682;8.890;2023-06-22T03:09:34;18.20;99.90
26224;DHT22;14820;48.682;8.890;2023-06-22T03:12:00;18.20;99.90
26224;DHT22;14820;48.682;8.890;2023-06-22T03:14:27;18.20;99.90
26224;DHT22;14820;48.682;8.890;2023-06-22T03:16:53;18.10;99.90
26224;DHT22;14820;48.682;8.890;2023-06-22T03:19:18;18.10;99.90
26224;DHT22;14820;48.682;8.890;2023-06-22T03:21:45;18.10;99.90
26224;DHT22;14820;48.682;8.890;2023-06-22T03:24:10;18.10;99.90
26224;DHT22;14820;48.682;8.890;2023-06-22T03:26:36;18.20;99.90
26224;DHT22;14820;48.682;8.890;2023-06-22T03:29:01;18.20;99.90
26224;DHT22;14820;48.682;8.890;2023-06-22T03:31:27;18.10;99.90
26224;DHT22;14820;48.682;8.890;2023-06-22T03:33:53;18.10;99.90
26224;DHT22;14820;48.682;8.890;2023-06-22T03:36:19;18.00;99.90
26224;DHT22;14820;48.682;8.890;2023-06-22T03:38:45;18.00;99.90
26224;DHT22;14820;48.682;8.890;2023-06-22T03:41:11;18.00;99.90
26224;DHT22;14820;48.682;8.890;2023-06-22T03:43:37;17.90;99.90
26224;DHT22;14820;48.682;8.890;2023-06-22T03:46:03;17.80;99.90
26224;DHT22;14820;48.682;8.890;2023-06-22T03:48:28;17.80;99.90
26224;DHT22;14820;48.682;8.890;2023-06-22T03:50:54;17.80;99.90
26224;DHT22;14820;48.682;8.890;2023-06-22T03:53:19;17.90;99.90
26224;DHT22;14820;48.682;8.890;2023-06-22T03:55:49;17.90;99.90
26224;DHT22;14820;48.682;8.890;2023-06-22T03:58:16;17.90;99.90
26224;DHT22;14820;48.682;8.890;2023-06-22T04:00:47;17.80;99.90
26224;DHT22;14820;48.682;8.890;2023-06-22T04:03:14;17.70;99.90
26224;DHT22;14820;48.682;8.890;2023-06-22T04:05:40;17.70;99.90
26224;DHT22;14820;48.682;8.890;2023-06-22T04:08:06;17.80;99.90
26224;DHT22;14820;48.682;8.890;2023-06-22T04:10:32;17.80;99.90
26224;DHT22;14820;48.682;8.890;2023-06-22T04:12:57;17.90;99.90
26224;DHT22;14820;48.682;8.890;2023-06-22T04:15:23;17.90;99.90
26224;DHT22;14820;48.682;8.890;2023-06-22T04:17:49;17.90;99.90
26224;DHT22;14820;48.682;8.890;2023-06-22T04:20:14;17.80;99.90
26224;DHT22;14820;48.682;8.890;2023-06-22T04:22:40;17.80;99.90
26224;DHT22;14820;48.682;8.890;2023-06-22T04:25:06;17.80;99.90
26224;DHT22;14820;48.682;8.890;2023-06-22T04:27:35;17.80;99.90
26224;DHT22;14820;48.682;8.890;2023-06-22T04:30:03;17.90;99.90
26224;DHT22;14820;48.682;8.890;2023-06-22T04:32:29;17.90;99.90
26224;DHT22;14820;48.682;8.890;2023-06-22T04:34:55;17.80;99.90
26224;DHT22;14820;48.682;8.890;2023-06-22T04:37:21;17.90;99.90
26224;DHT22;14820;48.682;8.890;2023-06-22T04:39:49;18.00;99.90
26224;DHT22;14820;48.682;8.890;2023-06-22T04:42:14;18.00;99.90
26224;DHT22;14820;48.682;8.890;2023-06-22T04:44:40;18.00;99.90
26224;DHT22;14820;48.682;8.890;2023-06-22T04:47:07;18.00;99.90
26224;DHT22;14820;48.682;8.890;2023-06-22T04:49:35;18.00;99.90
26224;DHT22;14820;48.682;8.890;2023-06-22T04:52:10;18.00;99.90
26224;DHT22;14820;48.682;8.890;2023-06-22T04:54:37;18.00;99.90
26224;DHT22;14820;48.682;8.890;2023-06-22T04:57:05;18.00;99.90
26224;DHT22;14820;48.682;8.890;2023-06-22T04:59:35;18.10;99.90
26224;DHT22;14820;48.682;8.890;2023-06-22T05:02:01;18.10;99.90
26224;DHT22;14820;48.682;8.890;2023-06-22T05:04:29;18.10;99.90
26224;DHT22;14820;48.682;8.890;2023-06-22T05:06:57;18.20;99.90
26224;DHT22;14820;48.682;8.890;2023-06-22T05:09:23;18.20;99.90
26224;DHT22;14820;48.682;8.890;2023-06-22T05:11:50;18.30;99.90
26224;DHT22;14820;48.682;8.890;2023-06-22T05:14:16;18.30;99.90
26224;DHT22;14820;48.682;8.890;2023-06-22T05:16:42;18.40;99.90
26224;DHT22;14820;48.682;8.890;2023-06-22T05:19:08;18.50;99.90
26224;DHT22;14820;48.682;8.890;2023-06-22T05:21:34;18.60;99.90
26224;DHT22;14820;48.682;8.890;2023-06-22T05:24:00;18.60;99.90
26224;DHT22;14820;48.682;8.890;2023-06-22T05:26:31;18.70;99.90
26224;DHT22;14820;48.682;8.890;2023-06-22T05:28:58;18.70;99.90
26224;DHT22;14820;48.682;8.890;2023-06-22T05:31:24;18.80;99.90
26224;DHT22;14820;48.682;8.890;2023-06-22T05:33:52;18.80;99.90
26224;DHT22;14820;48.682;8.890;2023-06-22T05:36:18;18.90;99.90
26224;DHT22;14820;48.682;8.890;2023-06-22T05:38:50;19.00;99.90
26224;DHT22;14820;48.682;8.890;2023-06-22T05:41:16;19.00;99.90
26224;DHT22;14820;48.682;8.890;2023-06-22T05:43:42;19.00;99.90
26224;DHT22;14820;48.682;8.890;2023-06-22T05:46:08;19.00;99.90
26224;DHT22;14820;48.682;8.890;2023-06-22T05:48:33;19.00;99.90
26224;DHT22;14820;48.682;8.890;2023-06-22T05:50:59;19.10;99.90
26224;DHT22;14820;48.682;8.890;2023-06-22T05:53:25;19.10;99.90
26224;DHT22;14820;48.682;8.890;2023-06-22T05:55:50;19.20;99.90
26224;DHT22;14820;48.682;8.890;2023-06-22T05:58:16;19.20;99.90
26224;DHT22;14820;48.682;8.890;2023-06-22T06:00:42;19.30;99.90
26224;DHT22;14820;48.682;8.890;2023-06-22T06:03:09;19.40;99.90
26224;DHT22;14820;48.682;8.890;2023-06-22T06:05:36;19.40;99.90
26224;DHT22;14820;48.682;8.890;2023-06-22T06:08:03;19.50;99.90
26224;DHT22;14820;48.682;8.890;2023-06-22T06:10:33;19.50;99.90
26224;DHT22;14820;48.682;8.890;2023-06-22T06:12:59;19.60;99.90
26224;DHT22;14820;48.682;8.890;2023-06-22T06:15:28;19.70;99.90
26224;DHT22;14820;48.682;8.890;2023-06-22T06:17:53;19.80;99.90
26224;DHT22;14820;48.682;8.890;2023-06-22T06:20:23;19.90;99.90
26224;DHT22;14820;48.682;8.890;2023-06-22T06:22:49;19.90;99.90
26224;DHT22;14820;48.682;8.890;2023-06-22T06:25:16;20.00;99.90
26224;DHT22;14820;48.682;8.890;2023-06-22T06:27:45;20.10;99.90
26224;DHT22;14820;48.682;8.890;2023-06-22T06:30:12;20.20;99.90
26224;DHT22;14820;48.682;8.890;2023-06-22T06:32:39;20.30;99.90
26224;DHT22;14820;48.682;8.890;2023-06-22T06:35:09;20.40;99.90
26224;DHT22;14820;48.682;8.890;2023-06-22T06:37:42;20.50;99.90
26224;DHT22;14820;48.682;8.890;2023-06-22T06:40:09;20.70;99.90
26224;DHT22;14820;48.682;8.890;2023-06-22T06:42:39;20.80;99.90
26224;DHT22;14820;48.682;8.890;2023-06-22T06:45:08;20.90;99.90
26224;DHT22;14820;48.682;8.890;2023-06-22T06:47:33;21.00;99.90
26224;DHT22;14820;48.682;8.890;2023-06-22T06:49:59;21.10;99.90
26224;DHT22;14820;48.682;8.890;2023-06-22T06:52:25;21.20;99.90
26224;DHT22;14820;48.682;8.890;2023-06-22T06:54:51;21.30;99.90
26224;DHT22;14820;48.682;8.890;2023-06-22T06:57:18;21.40;99.90
26224;DHT22;14820;48.682;8.890;2023-06-22T06:59:44;21.50;99.90
26224;DHT22;14820;48.682;8.890;2023-06-22T07:02:09;21.60;99.90
26224;DHT22;14820;48.682;8.890;2023-06-22T07:04:35;21.70;99.90
26224;DHT22;14820;48.682;8.890;2023-06-22T07:07:01;21.70;99.90
26224;DHT22;14820;48.682;8.890;2023-06-22T07:09:27;21.80;99.90
26224;DHT22;14820;48.682;8.890;2023-06-22T07:11:53;21.90;99.90
26224;DHT22;14820;48.682;8.890;2023-06-22T07:14:19;22.00;99.90
26224;DHT22;14820;48.682;8.890;2023-06-22T07:16:44;22.10;99.90
26224;DHT22;14820;48.682;8.890;2023-06-22T07:19:12;22.10;99.90
26224;DHT22;14820;48.682;8.890;2023-06-22T07:21:38;22.20;99.90
26224;DHT22;14820;48.682;8.890;2023-06-22T07:24:05;22.30;99.90
26224;DHT22;14820;48.682;8.890;2023-06-22T07:26:32;22.40;99.90
26224;DHT22;14820;48.682;8.890;2023-06-22T07:28:57;22.50;99.90
26224;DHT22;14820;48.682;8.890;2023-06-22T07:31:26;22.60;99.90
26224;DHT22;14820;48.682;8.890;2023-06-22T07:33:52;22.70;99.90
26224;DHT22;14820;48.682;8.890;2023-06-22T07:36:18;22.80;99.90
26224;DHT22;14820;48.682;8.890;2023-06-22T07:38:44;22.80;99.90
26224;DHT22;14820;48.682;8.890;2023-06-22T07:41:09;22.90;99.90
26224;DHT22;14820;48.682;8.890;2023-06-22T07:43:35;23.00;99.90
26224;DHT22;14820;48.682;8.890;2023-06-22T07:46:05;23.10;99.90
26224;DHT22;14820;48.682;8.890;2023-06-22T07:48:31;23.30;99.90
26224;DHT22;14820;48.682;8.890;2023-06-22T07:50:57;23.30;99.90
26224;DHT22;14820;48.682;8.890;2023-06-22T07:53:23;23.30;99.90
26224;DHT22;14820;48.682;8.890;2023-06-22T07:55:49;23.30;99.90
26224;DHT22;14820;48.682;8.890;2023-06-22T07:58:14;23.30;99.90
26224;DHT22;14820;48.682;8.890;2023-06-22T08:00:41;23.40;99.90
26224;DHT22;14820;48.682;8.890;2023-06-22T08:03:06;23.50;99.90
26224;DHT22;14820;48.682;8.890;2023-06-22T08:05:32;23.60;99.90
26224;DHT22;14820;48.682;8.890;2023-06-22T08:07:58;23.60;99.90
26224;DHT22;14820;48.682;8.890;2023-06-22T08:10:24;23.60;99.90
26224;DHT22;14820;48.682;8.890;2023-06-22T08:12:50;23.60;99.90
26224;DHT22;14820;48.682;8.890;2023-06-22T08:15:17;23.60;99.90
26224;DHT22;14820;48.682;8.890;2023-06-22T08:17:44;23.60;99.90
26224;DHT22;14820;48.682;8.890;2023-06-22T08:20:10;23.60;99.90
26224;DHT22;14820;48.682;8.890;2023-06-22T08:22:39;23.60;99.90
26224;DHT22;14820;48.682;8.890;2023-06-22T08:25:06;23.60;99.90
26224;DHT22;14820;48.682;8.890;2023-06-22T08:27:32;23.50;99.90
26224;DHT22;14820;48.682;8.890;2023-06-22T08:30:01;23.50;99.90
26224;DHT22;14820;48.682;8.890;2023-06-22T08:32:27;23.60;99.90
26224;DHT22;14820;48.682;8.890;2023-06-22T08:34:57;23.60;99.90
26224;DHT22;14820;48.682;8.890;2023-06-22T08:37:23;23.70;99.90
26224;DHT22;14820;48.682;8.890;2023-06-22T08:39:59;23.80;99.90
26224;DHT22;14820;48.682;8.890;2023-06-22T08:42:27;23.90;99.90
26224;DHT22;14820;48.682;8.890;2023-06-22T08:44:52;23.90;99.90
26224;DHT22;14820;48.682;8.890;2023-06-22T08:47:19;24.00;99.90
26224;DHT22;14820;48.682;8.890;2023-06-22T08:49:45;24.00;99.90
26224;DHT22;14820;48.682;8.890;2023-06-22T08:52:10;24.10;99.90
26224;DHT22;14820;48.682;8.890;2023-06-22T08:54:36;24.10;99.90
26224;DHT22;14820;48.682;8.890;2023-06-22T08:57:02;24.20;99.90
26224;DHT22;14820;48.682;8.890;2023-06-22T08:59:28;24.30;99.90
26224;DHT22;14820;48.682;8.890;2023-06-22T09:01:54;24.30;99.90
26224;DHT22;14820;48.682;8.890;2023-06-22T09:04:19;24.20;99.90
26224;DHT22;14820;48.682;8.890;2023-06-22T09:06:47;24.20;99.90
26224;DHT22;14820;48.682;8.890;2023-06-22T09:09:13;24.30;99.90
26224;DHT22;14820;48.682;8.890;2023-06-22T09:11:40;24.30;99.90
26224;DHT22;14820;48.682;8.890;2023-06-22T09:14:05;24.40;99.90
26224;DHT22;14820;48.682;8.890;2023-06-22T09:16:32;24.40;99.90
26224;DHT22;14820;48.682;8.890;2023-06-22T09:18:57;24.50;99.90
26224;DHT22;14820;48.682;8.890;2023-06-22T09:21:23;24.70;99.90
26224;DHT22;14820;48.682;8.890;2023-06-22T09:23:49;24.80;99.90
26224;DHT22;14820;48.682;8.890;2023-06-22T09:26:18;24.90;99.90
26224;DHT22;14820;48.682;8.890;2023-06-22T09:28:44;25.10;99.90
26224;DHT22;14820;48.682;8.890;2023-06-22T09:31:10;25.20;99.90
26224;DHT22;14820;48.682;8.890;2023-06-22T09:33:36;25.30;99.90
26224;DHT22;14820;48.682;8.890;2023-06-22T09:36:04;25.40;99.90
26224;DHT22;14820;48.682;8.890;2023-06-22T09:38:37;25.50;99.90
26224;DHT22;14820;48.682;8.890;2023-06-22T09:41:03;25.50;99.90
26224;DHT22;14820;48.682;8.890;2023-06-22T09:43:31;25.70;99.90
26224;DHT22;14820;48.682;8.890;2023-06-22T09:45:57;25.70;99.90
26224;DHT22;14820;48.682;8.890;2023-06-22T09:48:22;25.90;99.90
26224;DHT22;14820;48.682;8.890;2023-06-22T09:50:48;26.00;99.90
26224;DHT22;14820;48.682;8.890;2023-06-22T09:53:14;26.10;99.90
26224;DHT22;14820;48.682;8.890;2023-06-22T09:55:39;26.10;99.90
26224;DHT22;14820;48.682;8.890;2023-06-22T09:58:05;26.10;99.90
26224;DHT22;14820;48.682;8.890;2023-06-22T10:00:31;26.20;99.90
26224;DHT22;14820;48.682;8.890;2023-06-22T10:02:57;26.20;99.90
26224;DHT22;14820;48.682;8.890;2023-06-22T10:05:23;26.30;99.90
26224;DHT22;14820;48.682;8.890;2023-06-22T10:07:50;26.30;99.90
26224;DHT22;14820;48.682;8.890;2023-06-22T10:10:15;26.40;99.90
26224;DHT22;14820;48.682;8.890;2023-06-22T10:12:54;26.50;99.90
26224;DHT22;14820;48.682;8.890;2023-06-22T10:15:20;26.60;99.90
26224;DHT22;14820;48.682;8.890;2023-06-22T10:17:46;26.60;99.90
26224;DHT22;14820;48.682;8.890;2023-06-22T10:20:13;26.80;99.90
26224;DHT22;14820;48.682;8.890;2023-06-22T10:22:43;26.90;99.90
26224;DHT22;14820;48.682;8.890;2023-06-22T10:25:09;26.90;99.90
26224;DHT22;14820;48.682;8.890;2023-06-22T10:27:35;26.90;99.90
26224;DHT22;14820;48.682;8.890;2023-06-22T10:30:01;26.90;99.90
26224;DHT22;14820;48.682;8.890;2023-06-22T10:32:27;26.90;99.90
26224;DHT22;14820;48.682;8.890;2023-06-22T10:34:54;26.90;99.90
26224;DHT22;14820;48.682;8.890;2023-06-22T10:37:20;27.10;99.90
26224;DHT22;14820;48.682;8.890;2023-06-22T10:39:45;27.00;99.90
26224;DHT22;14820;48.682;8.890;2023-06-22T10:42:12;27.00;99.90
26224;DHT22;14820;48.682;8.890;2023-06-22T10:44:38;27.20;99.90
26224;DHT22;14820;48.682;8.890;2023-06-22T10:47:06;27.20;99.90
26224;DHT22;14820;48.682;8.890;2023-06-22T10:49:32;27.20;99.90
26224;DHT22;14820;48.682;8.890;2023-06-22T10:51:57;27.20;99.90
26224;DHT22;14820;48.682;8.890;2023-06-22T10:54:23;27.30;99.90
26224;DHT22;14820;48.682;8.890;2023-06-22T10:56:49;27.30;99.90
26224;DHT22;14820;48.682;8.890;2023-06-22T10:59:14;27.30;99.90
26224;DHT22;14820;48.682;8.890;2023-06-22T11:01:40;27.30;99.90
26224;DHT22;14820;48.682;8.890;2023-06-22T11:04:06;27.40;99.90
26224;DHT22;14820;48.682;8.890;2023-06-22T11:06:31;27.40;99.90
26224;DHT22;14820;48.682;8.890;2023-06-22T11:08:57;27.40;99.90
26224;DHT22;14820;48.682;8.890;2023-06-22T11:11:25;27.50;99.90
26224;DHT22;14820;48.682;8.890;2023-06-22T11:13:50;27.50;99.90
26224;DHT22;14820;48.682;8.890;2023-06-22T11:16:16;27.50;99.90
26224;DHT22;14820;48.682;8.890;2023-06-22T11:18:41;27.50;99.90
26224;DHT22;14820;48.682;8.890;2023-06-22T11:21:07;27.50;99.90
26224;DHT22;14820;48.682;8.890;2023-06-22T11:23:33;27.60;99.90
26224;DHT22;14820;48.682;8.890;2023-06-22T11:25:58;27.50;99.90
26224;DHT22;14820;48.682;8.890;2023-06-22T11:28:24;27.70;99.90
26224;DHT22;14820;48.682;8.890;2023-06-22T11:30:51;27.70;99.90
26224;DHT22;14820;48.682;8.890;2023-06-22T11:33:17;27.70;99.90
26224;DHT22;14820;48.682;8.890;2023-06-22T11:35:42;27.70;99.90
26224;DHT22;14820;48.682;8.890;2023-06-22T11:38:08;27.70;99.90
26224;DHT22;14820;48.682;8.890;2023-06-22T11:40:34;27.80;99.90
26224;DHT22;14820;48.682;8.890;2023-06-22T11:42:59;27.70;99.90
26224;DHT22;14820;48.682;8.890;2023-06-22T11:45:26;27.80;99.90
26224;DHT22;14820;48.682;8.890;2023-06-22T11:47:52;27.80;99.90
26224;DHT22;14820;48.682;8.890;2023-06-22T11:50:18;27.80;99.90
26224;DHT22;14820;48.682;8.890;2023-06-22T11:52:43;27.80;99.90
26224;DHT22;14820;48.682;8.890;2023-06-22T11:55:09;27.70;99.90
26224;DHT22;14820;48.682;8.890;2023-06-22T11:57:39;27.80;99.90
26224;DHT22;14820;48.682;8.890;2023-06-22T12:00:17;27.80;99.90
26224;DHT22;14820;48.682;8.890;2023-06-22T12:02:44;27.80;99.90
26224;DHT22;14820;48.682;8.890;2023-06-22T12:05:10;27.80;99.90
26224;DHT22;14820;48.682;8.890;2023-06-22T12:07:36;27.80;99.90
26224;DHT22;14820;48.682;8.890;2023-06-22T12:10:03;27.80;99.90
26224;DHT22;14820;48.682;8.890;2023-06-22T12:12:29;27.80;99.90
26224;DHT22;14820;48.682;8.890;2023-06-22T12:14:55;27.90;99.90
26224;DHT22;14820;48.682;8.890;2023-06-22T12:17:20;27.90;99.90
26224;DHT22;14820;48.682;8.890;2023-06-22T12:19:46;27.90;99.90
26224;DHT22;14820;48.682;8.890;2023-06-22T12:22:12;27.80;99.90
26224;DHT22;14820;48.682;8.890;2023-06-22T12:24:37;27.80;99.90
26224;DHT22;14820;48.682;8.890;2023-06-22T12:27:03;27.80;99.90
26224;DHT22;14820;48.682;8.890;2023-06-22T12:29:29;27.80;99.90
26224;DHT22;14820;48.682;8.890;2023-06-22T12:31:55;27.80;99.90
26224;DHT22;14820;48.682;8.890;2023-06-22T12:34:20;27.80;99.90
26224;DHT22;14820;48.682;8.890;2023-06-22T12:36:46;27.90;99.90
26224;DHT22;14820;48.682;8.890;2023-06-22T12:39:14;27.90;99.90
26224;DHT22;14820;48.682;8.890;2023-06-22T12:41:39;27.80;99.90
26224;DHT22;14820;48.682;8.890;2023-06-22T12:44:05;27.80;99.90
26224;DHT22;14820;48.682;8.890;2023-06-22T12:46:31;27.80;99.90
26224;DHT22;14820;48.682;8.890;2023-06-22T12:49:03;27.70;99.90
26224;DHT22;14820;48.682;8.890;2023-06-22T12:51:29;27.60;99.90
26224;DHT22;14820;48.682;8.890;2023-06-22T12:53:55;27.60;99.90
26224;DHT22;14820;48.682;8.890;2023-06-22T12:56:21;27.60;99.90
26224;DHT22;14820;48.682;8.890;2023-06-22T12:58:47;27.60;99.90
26224;DHT22;14820;48.682;8.890;2023-06-22T13:01:13;27.50;99.90
26224;DHT22;14820;48.682;8.890;2023-06-22T13:03:39;27.50;99.90
26224;DHT22;14820;48.682;8.890;2023-06-22T13:06:04;27.50;99.90
26224;DHT22;14820;48.682;8.890;2023-06-22T13:08:30;27.50;99.90
26224;DHT22;14820;48.682;8.890;2023-06-22T13:10:56;27.40;99.90
26224;DHT22;14820;48.682;8.890;2023-06-22T13:13:23;27.40;99.90
26224;DHT22;14820;48.682;8.890;2023-06-22T13:15:52;27.40;99.90
26224;DHT22;14820;48.682;8.890;2023-06-22T13:18:19;27.40;99.90
26224;DHT22;14820;48.682;8.890;2023-06-22T13:20:45;27.40;99.90
26224;DHT22;14820;48.682;8.890;2023-06-22T13:23:11;27.40;99.90
26224;DHT22;14820;48.682;8.890;2023-06-22T13:25:36;27.40;99.90
26224;DHT22;14820;48.682;8.890;2023-06-22T13:28:02;27.40;99.90
26224;DHT22;14820;48.682;8.890;2023-06-22T13:30:28;27.40;99.90
26224;DHT22;14820;48.682;8.890;2023-06-22T13:32:54;27.40;99.90
26224;DHT22;14820;48.682;8.890;2023-06-22T13:35:19;27.50;99.90
26224;DHT22;14820;48.682;8.890;2023-06-22T13:37:45;27.50;99.90
26224;DHT22;14820;48.682;8.890;2023-06-22T13:40:11;27.50;99.90
26224;DHT22;14820;48.682;8.890;2023-06-22T13:42:36;27.40;99.90
26224;DHT22;14820;48.682;8.890;2023-06-22T13:45:02;27.50;99.90
26224;DHT22;14820;48.682;8.890;2023-06-22T13:47:29;27.50;99.90
26224;DHT22;14820;48.682;8.890;2023-06-22T13:49:55;27.50;99.90
26224;DHT22;14820;48.682;8.890;2023-06-22T13:52:20;27.50;99.90
26224;DHT22;14820;48.682;8.890;2023-06-22T13:54:46;27.50;99.90
26224;DHT22;14820;48.682;8.890;2023-06-22T13:57:12;27.60;99.90
26224;DHT22;14820;48.682;8.890;2023-06-22T13:59:37;27.60;99.90
26224;DHT22;14820;48.682;8.890;2023-06-22T14:02:03;27.60;99.90
26224;DHT22;14820;48.682;8.890;2023-06-22T14:04:29;27.70;99.90
26224;DHT22;14820;48.682;8.890;2023-06-22T14:06:55;27.80;99.90
26224;DHT22;14820;48.682;8.890;2023-06-22T14:09:21;28.00;99.90
26224;DHT22;14820;48.682;8.890;2023-06-22T14:11:47;28.20;99.90
26224;DHT22;14820;48.682;8.890;2023-06-22T14:14:12;28.40;99.90
26224;DHT22;14820;48.682;8.890;2023-06-22T14:16:38;28.70;99.90
26224;DHT22;14820;48.682;8.890;2023-06-22T14:19:04;28.90;99.90
26224;DHT22;14820;48.682;8.890;2023-06-22T14:21:29;29.00;99.90
26224;DHT22;14820;48.682;8.890;2023-06-22T14:23:55;29.10;98.80
26224;DHT22;14820;48.682;8.890;2023-06-22T14:26:20;29.10;97.80
26224;DHT22;14820;48.682;8.890;2023-06-22T14:28:47;29.10;96.80
26224;DHT22;14820;48.682;8.890;2023-06-22T14:31:16;29.20;95.00
26224;DHT22;14820;48.682;8.890;2023-06-22T14:33:46;29.20;95.20
26224;DHT22;14820;48.682;8.890;2023-06-22T14:36:13;29.20;94.60
26224;DHT22;14820;48.682;8.890;2023-06-22T14:38:39;29.10;94.90
26224;DHT22;14820;48.682;8.890;2023-06-22T14:41:05;29.10;93.80
26224;DHT22;14820;48.682;8.890;2023-06-22T14:43:31;29.10;94.10
26224;DHT22;14820;48.682;8.890;2023-06-22T14:45:56;29.10;94.60
26224;DHT22;14820;48.682;8.890;2023-06-22T14:48:22;29.20;93.70
26224;DHT22;14820;48.682;8.890;2023-06-22T14:50:49;29.30;92.80
26224;DHT22;14820;48.682;8.890;2023-06-22T14:53:14;29.40;92.90
26224;DHT22;14820;48.682;8.890;2023-06-22T14:55:40;29.50;92.00
26224;DHT22;14820;48.682;8.890;2023-06-22T14:58:06;29.50;92.20
26224;DHT22;14820;48.682;8.890;2023-06-22T15:00:32;29.40;91.80
26224;DHT22;14820;48.682;8.890;2023-06-22T15:02:58;29.40;91.80
26224;DHT22;14820;48.682;8.890;2023-06-22T15:05:25;29.40;91.60
26224;DHT22;14820;48.682;8.890;2023-06-22T15:07:51;29.30;91.80
26224;DHT22;14820;48.682;8.890;2023-06-22T15:10:16;29.30;91.40
26224;DHT22;14820;48.682;8.890;2023-06-22T15:12:42;29.30;91.60
26224;DHT22;14820;48.682;8.890;2023-06-22T15:15:08;29.30;92.00
26224;DHT22;14820;48.682;8.890;2023-06-22T15:17:34;29.40;91.90
26224;DHT22;14820;48.682;8.890;2023-06-22T15:19:59;29.40;90.80
26224;DHT22;14820;48.682;8.890;2023-06-22T15:22:25;29.30;90.90
26224;DHT22;14820;48.682;8.890;2023-06-22T15:24:51;29.30;91.30
26224;DHT22;14820;48.682;8.890;2023-06-22T15:27:23;29.10;91.10
26224;DHT22;14820;48.682;8.890;2023-06-22T15:29:49;29.00;91.30